Time;durP1;ratioP1;P1;durP2;ratioP2;P2;SDS_P1;SDS_P2;PMS_P1;PMS_P2;Temp;Humidity;BMP_temperature;BMP_pressure;BME280_temperature;BME280_humidity;BME280_pressure;Samples;Min_cycle;Max_cycle;Signal;HPM_P1;HPM_P2
2022/02/20 00:00:45;;;;;;;;;;;11.50;99.90;;;;;;5088373;28;19929;-72
2022/02/20 00:03:10;;;;;;;;;;;11.50;99.90;;;;;;5088357;28;20370;-72
2022/02/20 00:05:36;;;;;;;;;;;11.50;99.90;;;;;;5087829;28;19917;-72
2022/02/20 00:08:02;;;;;;;;;;;11.50;99.90;;;;;;5088319;28;19912;-72
2022/02/20 00:10:28;;;;;;;;;;;11.50;99.90;;;;;;5088313;28;19931;-71
2022/02/20 00:12:54;;;;;;;;;;;11.50;99.90;;;;;;5088311;28;20409;-72
2022/02/20 00:15:20;;;;;;;;;;;11.50;99.90;;;;;;5088003;28;19919;-73
2022/02/20 00:17:50;;;;;;;;;;;11.50;99.90;;;;;;5086773;28;19981;-73
2022/02/20 00:20:15;;;;;;;;;;;11.50;99.90;;;;;;5088187;28;19955;-72
2022/02/20 00:22:41;;;;;;;;;;;11.50;99.90;;;;;;5087988;28;19953;-72
2022/02/20 00:25:07;;;;;;;;;;;11.40;99.90;;;;;;5086715;28;20288;-72
2022/02/20 00:27:33;;;;;;;;;;;11.50;99.90;;;;;;5088064;28;19912;-71
2022/02/20 00:29:58;;;;;;;;;;;11.50;99.90;;;;;;5088051;28;20015;-72
2022/02/20 00:32:25;;;;;;;;;;;11.50;99.90;;;;;;5087844;28;19924;-73
2022/02/20 00:34:50;;;;;;;;;;;11.50;99.90;;;;;;5086727;28;19912;-72
2022/02/20 00:37:16;;;;;;;;;;;11.50;99.90;;;;;;5088004;28;19939;-72
2022/02/20 00:39:42;;;;;;;;;;;11.50;99.90;;;;;;5088039;28;19946;-72
2022/02/20 00:42:07;;;;;;;;;;;11.60;99.90;;;;;;5087832;28;19920;-72
2022/02/20 00:44:33;;;;;;;;;;;11.60;99.90;;;;;;5087725;28;19953;-72
2022/02/20 00:46:58;;;;;;;;;;;11.60;99.90;;;;;;5087618;28;19938;-72
2022/02/20 00:49:24;;;;;;;;;;;11.70;99.90;;;;;;5087685;28;19924;-71
2022/02/20 00:51:49;;;;;;;;;;;11.70;99.90;;;;;;5087742;28;19912;-72
2022/02/20 00:54:15;;;;;;;;;;;11.60;99.90;;;;;;5087749;28;19923;-73
2022/02/20 00:56:40;;;;;;;;;;;11.70;99.90;;;;;;5087723;28;20232;-72
2022/02/20 00:59:06;;;;;;;;;;;11.70;99.90;;;;;;5087752;28;20309;-72
2022/02/20 01:01:32;;;;;;;;;;;11.70;99.90;;;;;;5087608;28;20000;-72
2022/02/20 01:03:58;;;;;;;;;;;11.70;99.90;;;;;;5086055;28;19908;-72
2022/02/20 01:06:24;;;;;;;;;;;11.70;99.90;;;;;;5087239;28;19912;-72
2022/02/20 01:08:50;;;;;;;;;;;11.60;99.90;;;;;;5086253;28;19989;-72
2022/02/20 01:11:16;;;;;;;;;;;11.60;99.90;;;;;;5087924;28;19942;-72
2022/02/20 01:13:41;;;;;;;;;;;11.60;99.90;;;;;;5087637;28;19908;-72
2022/02/20 01:16:07;;;;;;;;;;;11.60;99.90;;;;;;5088155;28;19924;-72
2022/02/20 01:18:33;;;;;;;;;;;11.60;99.90;;;;;;5090522;28;19924;-72
2022/02/20 01:20:58;;;;;;;;;;;11.60;99.90;;;;;;5091492;28;20358;-72
2022/02/20 01:23:24;;;;;;;;;;;11.70;99.90;;;;;;5091249;28;20354;-72
2022/02/20 01:25:49;;;;;;;;;;;11.70;99.90;;;;;;5091605;28;19938;-72
2022/02/20 01:28:15;;;;;;;;;;;11.70;99.90;;;;;;5090338;28;19962;-72
2022/02/20 01:30:40;;;;;;;;;;;11.70;99.90;;;;;;5091307;28;20021;-72
2022/02/20 01:33:06;;;;;;;;;;;11.80;99.90;;;;;;5091100;28;19978;-72
2022/02/20 01:35:32;;;;;;;;;;;11.70;99.90;;;;;;5091396;28;19912;-72
2022/02/20 01:37:57;;;;;;;;;;;11.70;99.90;;;;;;5091405;28;19912;-72
2022/02/20 01:40:23;;;;;;;;;;;11.70;99.90;;;;;;5091260;28;20384;-72
2022/02/20 01:42:48;;;;;;;;;;;11.70;99.90;;;;;;5091277;28;19918;-72
2022/02/20 01:45:15;;;;;;;;;;;11.70;99.90;;;;;;5089918;28;19916;-72
2022/02/20 01:47:40;;;;;;;;;;;11.70;99.90;;;;;;5091140;28;20002;-72
2022/02/20 01:50:07;;;;;;;;;;;11.80;99.90;;;;;;5090787;28;20002;-72
2022/02/20 01:52:32;;;;;;;;;;;11.80;99.90;;;;;;5090940;28;19918;-72
2022/02/20 01:54:58;;;;;;;;;;;11.80;99.90;;;;;;5090774;28;19912;-72
2022/02/20 01:57:24;;;;;;;;;;;11.80;99.90;;;;;;5090508;28;19916;-72
2022/02/20 01:59:50;;;;;;;;;;;11.80;99.90;;;;;;5090811;28;19923;-72
2022/02/20 02:02:19;;;;;;;;;;;11.80;99.90;;;;;;5090927;28;19920;-72
2022/02/20 02:04:46;;;;;;;;;;;11.80;99.90;;;;;;5091244;28;19950;-72
2022/02/20 02:07:12;;;;;;;;;;;11.80;99.90;;;;;;5090850;28;19908;-71
2022/02/20 02:09:37;;;;;;;;;;;11.80;99.90;;;;;;5090866;28;19912;-72
2022/02/20 02:12:04;;;;;;;;;;;11.80;99.90;;;;;;5090768;28;20335;-71
2022/02/20 02:14:29;;;;;;;;;;;11.80;99.90;;;;;;5091129;28;19915;-72
2022/02/20 02:16:58;;;;;;;;;;;11.80;99.90;;;;;;5090591;28;19920;-72
2022/02/20 02:19:23;;;;;;;;;;;11.90;99.90;;;;;;5090792;28;20325;-72
2022/02/20 02:21:49;;;;;;;;;;;11.90;99.90;;;;;;5090494;28;19912;-72
2022/02/20 02:24:15;;;;;;;;;;;11.90;99.90;;;;;;5090623;28;19954;-72
2022/02/20 02:26:40;;;;;;;;;;;11.80;99.90;;;;;;5090605;28;19912;-72
2022/02/20 02:29:06;;;;;;;;;;;11.90;99.90;;;;;;5089541;28;19919;-72
2022/02/20 02:31:32;;;;;;;;;;;11.90;99.90;;;;;;5090082;28;19920;-72
2022/02/20 02:33:59;;;;;;;;;;;11.90;99.90;;;;;;5090359;28;20212;-72
2022/02/20 02:36:25;;;;;;;;;;;11.90;99.90;;;;;;5090271;28;19916;-72
2022/02/20 02:38:51;;;;;;;;;;;12.00;99.90;;;;;;5088722;28;20101;-72
2022/02/20 02:41:17;;;;;;;;;;;12.00;99.90;;;;;;5090117;28;19916;-72
2022/02/20 02:43:42;;;;;;;;;;;12.00;99.90;;;;;;5090070;28;19912;-72
2022/02/20 02:46:08;;;;;;;;;;;12.00;99.90;;;;;;5090120;28;19954;-72
2022/02/20 02:48:34;;;;;;;;;;;12.10;99.90;;;;;;5089998;28;19939;-72
2022/02/20 02:51:01;;;;;;;;;;;12.10;99.90;;;;;;5090193;28;19908;-72
2022/02/20 02:53:27;;;;;;;;;;;12.10;99.90;;;;;;5088806;28;20373;-72
2022/02/20 02:55:53;;;;;;;;;;;12.10;99.90;;;;;;5089787;28;19940;-72
2022/02/20 02:58:19;;;;;;;;;;;12.10;99.90;;;;;;5089881;28;20015;-72
2022/02/20 03:00:45;;;;;;;;;;;12.10;99.90;;;;;;5088522;28;19912;-72
2022/02/20 03:03:10;;;;;;;;;;;12.10;99.90;;;;;;5089186;28;19912;-73
2022/02/20 03:05:36;;;;;;;;;;;12.00;99.90;;;;;;5089671;28;19912;-72
2022/02/20 03:08:02;;;;;;;;;;;12.00;99.90;;;;;;5089653;28;19908;-72
2022/02/20 03:10:29;;;;;;;;;;;12.00;99.90;;;;;;5089669;28;19908;-73
2022/02/20 03:12:54;;;;;;;;;;;12.00;99.90;;;;;;5089471;28;19915;-73
2022/02/20 03:15:20;;;;;;;;;;;12.00;99.90;;;;;;5089535;28;20255;-72
2022/02/20 03:17:46;;;;;;;;;;;12.00;99.90;;;;;;5089381;28;19920;-73
2022/02/20 03:20:12;;;;;;;;;;;12.00;99.90;;;;;;5089429;28;19908;-73
2022/02/20 03:22:37;;;;;;;;;;;12.00;99.90;;;;;;5089346;28;19911;-72
2022/02/20 03:25:04;;;;;;;;;;;12.00;99.90;;;;;;5089379;28;19918;-72
2022/02/20 03:27:29;;;;;;;;;;;12.00;99.90;;;;;;5089216;28;19912;-73
2022/02/20 03:29:55;;;;;;;;;;;12.00;99.90;;;;;;5089152;28;19919;-72
2022/02/20 03:32:20;;;;;;;;;;;12.00;99.90;;;;;;5088970;28;19930;-72
2022/02/20 03:34:46;;;;;;;;;;;12.00;99.90;;;;;;5089107;28;19908;-72
2022/02/20 03:37:11;;;;;;;;;;;12.00;99.90;;;;;;5089071;28;19942;-73
2022/02/20 03:39:37;;;;;;;;;;;12.00;99.90;;;;;;5089074;28;19923;-73
2022/02/20 03:42:03;;;;;;;;;;;12.00;99.90;;;;;;5088882;28;20351;-73
2022/02/20 03:44:28;;;;;;;;;;;12.00;99.90;;;;;;5088935;28;19961;-72
2022/02/20 03:46:54;;;;;;;;;;;12.00;99.90;;;;;;5088199;28;19923;-72
2022/02/20 03:49:20;;;;;;;;;;;12.00;99.90;;;;;;5088130;28;19950;-73
2022/02/20 03:51:45;;;;;;;;;;;12.00;99.90;;;;;;5088203;28;19922;-72
2022/02/20 03:54:11;;;;;;;;;;;12.00;99.90;;;;;;5086992;28;19972;-72
2022/02/20 03:56:37;;;;;;;;;;;12.10;99.90;;;;;;5088005;28;19916;-72
2022/02/20 03:59:03;;;;;;;;;;;12.10;99.90;;;;;;5089095;28;19998;-73
2022/02/20 04:01:28;;;;;;;;;;;12.10;99.90;;;;;;5088688;28;19915;-72
2022/02/20 04:03:54;;;;;;;;;;;12.10;99.90;;;;;;5088709;28;19916;-72
2022/02/20 04:06:19;;;;;;;;;;;12.10;99.90;;;;;;5088581;28;20277;-72
2022/02/20 04:08:45;;;;;;;;;;;12.10;99.90;;;;;;5088639;28;19912;-73
2022/02/20 04:11:11;;;;;;;;;;;12.10;99.90;;;;;;5088500;28;19908;-72
2022/02/20 04:13:37;;;;;;;;;;;12.10;99.90;;;;;;5088476;28;19916;-73
2022/02/20 04:16:03;;;;;;;;;;;12.10;99.90;;;;;;5088401;28;19916;-72
2022/02/20 04:18:29;;;;;;;;;;;12.10;99.90;;;;;;5088422;28;19923;-72
2022/02/20 04:20:54;;;;;;;;;;;12.10;99.90;;;;;;5088415;28;20385;-72
2022/02/20 04:23:20;;;;;;;;;;;12.10;99.90;;;;;;5088267;28;20327;-72
2022/02/20 04:25:46;;;;;;;;;;;12.10;99.90;;;;;;5087126;28;19970;-72
2022/02/20 04:28:12;;;;;;;;;;;12.10;99.90;;;;;;5088203;28;19916;-72
2022/02/20 04:30:37;;;;;;;;;;;12.10;99.90;;;;;;5088127;28;19919;-73
2022/02/20 04:33:03;;;;;;;;;;;12.10;99.90;;;;;;5088121;28;19925;-72
2022/02/20 04:35:31;;;;;;;;;;;12.10;99.90;;;;;;5088200;28;19928;-73
2022/02/20 04:37:57;;;;;;;;;;;12.10;99.90;;;;;;5088061;28;19927;-72
2022/02/20 04:40:22;;;;;;;;;;;12.10;99.90;;;;;;5088113;28;19908;-72
2022/02/20 04:42:51;;;;;;;;;;;12.10;99.90;;;;;;5086590;28;19926;-72
2022/02/20 04:45:19;;;;;;;;;;;12.10;99.90;;;;;;5088027;28;19912;-72
2022/02/20 04:47:45;;;;;;;;;;;12.10;99.90;;;;;;5088000;28;19912;-73
2022/02/20 04:50:11;;;;;;;;;;;12.10;99.90;;;;;;5088126;28;19915;-72
2022/02/20 04:52:36;;;;;;;;;;;12.10;99.90;;;;;;5091014;28;19995;-72
2022/02/20 04:55:02;;;;;;;;;;;12.10;99.90;;;;;;5094776;28;19919;-73
2022/02/20 04:57:31;;;;;;;;;;;12.10;99.90;;;;;;5094512;28;19912;-67
2022/02/20 04:59:57;;;;;;;;;;;12.10;99.90;;;;;;5094450;28;20350;-73
2022/02/20 05:02:23;;;;;;;;;;;12.20;99.90;;;;;;5094598;28;19999;-72
2022/02/20 05:04:48;;;;;;;;;;;12.20;99.90;;;;;;5094678;28;19912;-73
2022/02/20 05:07:14;;;;;;;;;;;12.20;99.90;;;;;;5094624;28;20010;-73
2022/02/20 05:09:40;;;;;;;;;;;12.20;99.90;;;;;;5094524;28;19912;-72
2022/02/20 05:12:05;;;;;;;;;;;12.20;99.90;;;;;;5094407;28;19912;-72
2022/02/20 05:14:31;;;;;;;;;;;12.20;99.90;;;;;;5094603;28;20011;-73
2022/02/20 05:16:57;;;;;;;;;;;12.20;99.90;;;;;;5094500;28;20278;-73
2022/02/20 05:19:22;;;;;;;;;;;12.20;99.90;;;;;;5094871;28;19908;-73
2022/02/20 05:21:48;;;;;;;;;;;12.10;99.90;;;;;;5094421;28;19912;-73
2022/02/20 05:24:13;;;;;;;;;;;12.10;99.90;;;;;;5094421;28;19919;-73
2022/02/20 05:26:39;;;;;;;;;;;12.10;99.90;;;;;;5093141;28;19912;-73
2022/02/20 05:29:04;;;;;;;;;;;12.10;99.90;;;;;;5094401;28;20016;-72
2022/02/20 05:31:30;;;;;;;;;;;12.10;99.90;;;;;;5094153;28;19912;-73
2022/02/20 05:33:55;;;;;;;;;;;12.10;99.90;;;;;;5094461;28;19999;-73
2022/02/20 05:36:21;;;;;;;;;;;12.10;99.90;;;;;;5094231;28;20006;-72
2022/02/20 05:38:49;;;;;;;;;;;12.10;99.90;;;;;;5093612;28;20465;-73
2022/02/20 05:41:15;;;;;;;;;;;12.10;99.90;;;;;;5092482;28;20255;-73
2022/02/20 05:43:40;;;;;;;;;;;12.10;99.90;;;;;;5092580;28;20015;-73
2022/02/20 05:46:06;;;;;;;;;;;12.10;99.90;;;;;;5092626;28;19958;-72
2022/02/20 05:48:31;;;;;;;;;;;12.10;99.90;;;;;;5094356;28;19988;-73
2022/02/20 05:50:57;;;;;;;;;;;12.10;99.90;;;;;;5092832;28;19924;-72
2022/02/20 05:53:22;;;;;;;;;;;12.10;99.90;;;;;;5094202;28;19912;-72
2022/02/20 05:55:48;;;;;;;;;;;12.10;99.90;;;;;;5094131;28;20369;-73
2022/02/20 05:58:15;;;;;;;;;;;12.10;99.90;;;;;;5094203;28;20361;-73
2022/02/20 06:00:41;;;;;;;;;;;12.00;99.90;;;;;;5094113;28;20222;-73
2022/02/20 06:03:07;;;;;;;;;;;12.00;99.90;;;;;;5093509;28;19916;-73
2022/02/20 06:05:32;;;;;;;;;;;12.00;99.90;;;;;;5088600;28;19939;-73
2022/02/20 06:07:58;;;;;;;;;;;12.00;99.90;;;;;;5089754;28;19916;-72
2022/02/20 06:10:23;;;;;;;;;;;12.00;99.90;;;;;;5090794;28;19916;-73
2022/02/20 06:12:49;;;;;;;;;;;12.00;99.90;;;;;;5090745;28;19911;-72
2022/02/20 06:15:14;;;;;;;;;;;12.00;99.90;;;;;;5089393;28;19941;-73
2022/02/20 06:17:40;;;;;;;;;;;12.00;99.90;;;;;;5090518;28;20193;-73
2022/02/20 06:20:06;;;;;;;;;;;12.00;99.90;;;;;;5089352;28;19912;-73
2022/02/20 06:22:31;;;;;;;;;;;12.00;99.90;;;;;;5090584;28;19934;-73
2022/02/20 06:24:57;;;;;;;;;;;12.00;99.90;;;;;;5090460;28;19912;-73
2022/02/20 06:27:22;;;;;;;;;;;12.00;99.90;;;;;;5090502;28;19912;-72
2022/02/20 06:29:48;;;;;;;;;;;12.00;99.90;;;;;;5090431;28;19923;-72
2022/02/20 06:32:14;;;;;;;;;;;12.00;99.90;;;;;;5087987;28;19950;-72
2022/02/20 06:34:39;;;;;;;;;;;12.00;99.90;;;;;;5090395;28;20366;-73
2022/02/20 06:37:05;;;;;;;;;;;12.00;99.90;;;;;;5090250;28;19946;-73
2022/02/20 06:39:33;;;;;;;;;;;12.00;99.90;;;;;;5090325;28;19908;-72
2022/02/20 06:41:59;;;;;;;;;;;12.00;99.90;;;;;;5090185;28;20002;-73
2022/02/20 06:44:25;;;;;;;;;;;12.00;99.90;;;;;;5090154;28;19912;-72
2022/02/20 06:46:50;;;;;;;;;;;12.00;99.90;;;;;;5090171;28;19963;-73
2022/02/20 06:49:16;;;;;;;;;;;12.00;99.90;;;;;;5090097;28;19912;-72
2022/02/20 06:51:42;;;;;;;;;;;12.00;99.90;;;;;;5089935;28;19908;-73
2022/02/20 06:54:08;;;;;;;;;;;12.10;99.90;;;;;;5089832;28;20259;-72
2022/02/20 06:56:33;;;;;;;;;;;12.10;99.90;;;;;;5088140;28;19923;-72
2022/02/20 06:58:59;;;;;;;;;;;12.10;99.90;;;;;;5089830;28;19917;-72
2022/02/20 07:01:24;;;;;;;;;;;12.10;99.90;;;;;;5089811;28;20328;-72
2022/02/20 07:03:50;;;;;;;;;;;12.10;99.90;;;;;;5089861;28;20278;-73
2022/02/20 07:06:16;;;;;;;;;;;12.10;99.90;;;;;;5089795;28;19999;-72
2022/02/20 07:08:42;;;;;;;;;;;12.10;99.90;;;;;;5089585;28;19970;-72
2022/02/20 07:11:08;;;;;;;;;;;12.10;99.90;;;;;;5089410;28;20362;-72
2022/02/20 07:13:33;;;;;;;;;;;12.20;99.90;;;;;;5089539;28;20003;-72
2022/02/20 07:15:59;;;;;;;;;;;12.20;99.90;;;;;;5089170;28;20385;-73
2022/02/20 07:18:24;;;;;;;;;;;12.20;99.90;;;;;;5088133;28;19916;-72
2022/02/20 07:20:50;;;;;;;;;;;12.20;99.90;;;;;;5089508;28;19978;-72
2022/02/20 07:23:15;;;;;;;;;;;12.20;99.90;;;;;;5087949;28;19973;-72
2022/02/20 07:25:41;;;;;;;;;;;12.20;99.90;;;;;;5089351;28;19966;-72
2022/02/20 07:28:07;;;;;;;;;;;12.20;99.90;;;;;;5089330;28;19948;-72
2022/02/20 07:30:33;;;;;;;;;;;12.20;99.90;;;;;;5089268;28;19920;-72
2022/02/20 07:33:08;;;;;;;;;;;12.20;99.90;;;;;;5089078;28;19939;-72
2022/02/20 07:35:37;;;;;;;;;;;12.20;99.90;;;;;;5089129;28;19913;-73
2022/02/20 07:38:03;;;;;;;;;;;12.30;99.90;;;;;;5088868;28;20316;-72
2022/02/20 07:40:29;;;;;;;;;;;12.30;99.90;;;;;;5089159;28;19916;-72
2022/02/20 07:42:55;;;;;;;;;;;12.30;99.90;;;;;;5088925;28;19954;-72
2022/02/20 07:45:23;;;;;;;;;;;12.30;99.90;;;;;;5088927;28;19916;-73
2022/02/20 07:47:55;;;;;;;;;;;12.30;99.90;;;;;;5088952;28;20346;-73
2022/02/20 07:50:22;;;;;;;;;;;12.30;99.90;;;;;;5088731;28;20263;-73
2022/02/20 07:52:47;;;;;;;;;;;12.30;99.90;;;;;;5088763;28;19908;-73
2022/02/20 07:55:13;;;;;;;;;;;12.30;99.90;;;;;;5088717;28;19964;-73
2022/02/20 07:57:38;;;;;;;;;;;12.30;99.90;;;;;;5088538;28;19911;-72
2022/02/20 08:00:05;;;;;;;;;;;12.30;99.90;;;;;;5087090;28;20364;-73
2022/02/20 08:02:31;;;;;;;;;;;12.30;99.90;;;;;;5088503;28;19956;-72
2022/02/20 08:04:57;;;;;;;;;;;12.30;99.90;;;;;;5088471;28;19912;-72
2022/02/20 08:07:23;;;;;;;;;;;12.30;99.90;;;;;;5088604;28;19908;-73
2022/02/20 08:09:48;;;;;;;;;;;12.40;99.90;;;;;;5088524;28;19915;-72
2022/02/20 08:12:14;;;;;;;;;;;12.30;99.90;;;;;;5088650;28;20008;-72
2022/02/20 08:14:40;;;;;;;;;;;12.40;99.90;;;;;;5088259;28;19908;-73
2022/02/20 08:17:05;;;;;;;;;;;12.40;99.90;;;;;;5088324;28;19920;-73
2022/02/20 08:19:31;;;;;;;;;;;12.40;99.90;;;;;;5088312;28;19919;-73
2022/02/20 08:21:56;;;;;;;;;;;12.40;99.90;;;;;;5088293;28;20411;-72
2022/02/20 08:24:22;;;;;;;;;;;12.40;99.90;;;;;;5088524;28;19912;-73
2022/02/20 08:26:47;;;;;;;;;;;12.40;99.90;;;;;;5087525;28;19908;-72
2022/02/20 08:29:13;;;;;;;;;;;12.40;99.90;;;;;;5087712;28;19912;-73
2022/02/20 08:31:39;;;;;;;;;;;12.40;99.90;;;;;;5088584;28;19962;-73
2022/02/20 08:34:04;;;;;;;;;;;12.40;99.90;;;;;;5088167;28;19919;-72
2022/02/20 08:36:30;;;;;;;;;;;12.40;99.90;;;;;;5088262;28;20412;-72
2022/02/20 08:38:55;;;;;;;;;;;12.50;99.90;;;;;;5088166;28;19912;-73
2022/02/20 08:41:21;;;;;;;;;;;12.50;99.90;;;;;;5087211;28;20392;-73
2022/02/20 08:43:46;;;;;;;;;;;12.50;99.90;;;;;;5089041;28;19912;-73
2022/02/20 08:46:12;;;;;;;;;;;12.50;99.90;;;;;;5088436;28;20298;-73
2022/02/20 08:48:38;;;;;;;;;;;12.50;99.90;;;;;;5087773;28;19998;-73
2022/02/20 08:51:05;;;;;;;;;;;12.50;99.90;;;;;;5087779;28;19919;-73
2022/02/20 08:53:31;;;;;;;;;;;12.60;99.90;;;;;;5087530;28;19952;-72
2022/02/20 08:55:56;;;;;;;;;;;12.60;99.90;;;;;;5087223;28;20003;-73
2022/02/20 08:58:22;;;;;;;;;;;12.60;99.90;;;;;;5086610;28;19912;-72
2022/02/20 09:00:47;;;;;;;;;;;12.60;99.90;;;;;;5085785;28;19941;-73
2022/02/20 09:03:13;;;;;;;;;;;12.50;99.90;;;;;;5085532;28;19947;-72
2022/02/20 09:05:39;;;;;;;;;;;12.60;99.90;;;;;;5085564;28;20363;-73
2022/02/20 09:08:04;;;;;;;;;;;12.60;99.90;;;;;;5085715;28;19908;-72
2022/02/20 09:10:30;;;;;;;;;;;12.60;99.90;;;;;;5085574;28;19965;-72
2022/02/20 09:12:55;;;;;;;;;;;12.60;99.90;;;;;;5084204;28;20370;-73
2022/02/20 09:15:21;;;;;;;;;;;12.60;99.90;;;;;;5085522;28;19923;-73
2022/02/20 09:17:48;;;;;;;;;;;12.60;99.90;;;;;;5085351;28;19973;-73
2022/02/20 09:20:13;;;;;;;;;;;12.70;99.90;;;;;;5085377;28;19990;-73
2022/02/20 09:22:41;;;;;;;;;;;12.70;99.90;;;;;;5086404;28;19916;-73
2022/02/20 09:25:08;;;;;;;;;;;12.70;99.90;;;;;;5085014;28;19940;-73
2022/02/20 09:27:33;;;;;;;;;;;12.70;99.90;;;;;;5084894;28;19912;-73
2022/02/20 09:29:59;;;;;;;;;;;12.70;99.90;;;;;;5086339;28;19919;-72
2022/02/20 09:32:26;;;;;;;;;;;12.70;99.90;;;;;;5087444;28;19997;-72
2022/02/20 09:34:51;;;;;;;;;;;12.70;99.90;;;;;;5087556;28;19919;-72
2022/02/20 09:37:17;;;;;;;;;;;12.80;99.90;;;;;;5087314;28;19916;-72
2022/02/20 09:39:43;;;;;;;;;;;12.80;99.90;;;;;;5090449;28;19915;-73
2022/02/20 09:42:08;;;;;;;;;;;12.80;99.90;;;;;;5091488;28;19965;-73
2022/02/20 09:44:34;;;;;;;;;;;12.80;99.90;;;;;;5091516;28;19918;-72
2022/02/20 09:47:01;;;;;;;;;;;12.90;99.90;;;;;;5090847;28;19916;-73
2022/02/20 09:49:27;;;;;;;;;;;12.90;99.90;;;;;;5090933;28;19956;-72
2022/02/20 09:51:53;;;;;;;;;;;13.00;99.90;;;;;;5090720;28;20347;-71
2022/02/20 09:54:19;;;;;;;;;;;13.00;99.90;;;;;;5091026;28;19916;-73
2022/02/20 09:56:44;;;;;;;;;;;13.00;99.90;;;;;;5090392;28;19984;-72
2022/02/20 09:59:10;;;;;;;;;;;13.00;99.90;;;;;;5090468;28;19909;-72
2022/02/20 10:01:35;;;;;;;;;;;13.00;99.90;;;;;;5090570;28;19912;-72
2022/02/20 10:04:10;;;;;;;;;;;12.90;99.90;;;;;;5090819;28;20297;-72
2022/02/20 10:06:35;;;;;;;;;;;12.80;99.90;;;;;;5090804;28;19908;-72
2022/02/20 10:09:01;;;;;;;;;;;12.80;99.90;;;;;;5090749;28;19916;-73
2022/02/20 10:11:27;;;;;;;;;;;12.80;99.90;;;;;;5090651;28;19913;-72
2022/02/20 10:13:54;;;;;;;;;;;12.80;99.90;;;;;;5090671;28;20041;-72
2022/02/20 10:16:23;;;;;;;;;;;12.80;99.90;;;;;;5090347;28;19955;-72
2022/02/20 10:18:49;;;;;;;;;;;12.90;99.90;;;;;;5090513;28;19908;-73
2022/02/20 10:21:18;;;;;;;;;;;12.90;99.90;;;;;;5090541;28;20322;-73
2022/02/20 10:23:44;;;;;;;;;;;12.90;99.90;;;;;;5090442;28;20294;-73
2022/02/20 10:26:19;;;;;;;;;;;13.00;99.90;;;;;;5090180;28;19912;-73
2022/02/20 10:28:59;;;;;;;;;;;13.00;99.90;;;;;;5090367;28;19912;-72
2022/02/20 10:31:43;;;;;;;;;;;13.00;99.90;;;;;;5090147;28;19920;-73
2022/02/20 10:34:13;;;;;;;;;;;13.00;99.90;;;;;;5090039;28;20294;-73
2022/02/20 10:36:43;;;;;;;;;;;13.00;99.90;;;;;;5090044;28;19913;-72
2022/02/20 10:39:16;;;;;;;;;;;13.00;99.90;;;;;;5088659;28;20615;-73
2022/02/20 10:41:41;;;;;;;;;;;13.00;99.90;;;;;;5089562;28;19912;-73
2022/02/20 10:44:07;;;;;;;;;;;13.00;99.90;;;;;;5089820;28;19920;-73
2022/02/20 10:46:32;;;;;;;;;;;13.00;99.90;;;;;;5089536;28;19971;-73
2022/02/20 10:48:58;;;;;;;;;;;13.00;99.90;;;;;;5088713;28;20302;-73
2022/02/20 10:51:24;;;;;;;;;;;13.00;99.90;;;;;;5089064;28;19916;-73
2022/02/20 10:53:50;;;;;;;;;;;13.00;99.90;;;;;;5090057;28;19957;-72
2022/02/20 10:56:16;;;;;;;;;;;13.10;99.90;;;;;;5089150;28;19916;-72
2022/02/20 10:58:44;;;;;;;;;;;13.00;99.90;;;;;;5088047;28;19959;-72
2022/02/20 11:01:25;;;;;;;;;;;13.10;99.90;;;;;;5089110;28;19912;-73
2022/02/20 11:03:54;;;;;;;;;;;13.10;99.90;;;;;;5089612;28;20410;-73
2022/02/20 11:06:20;;;;;;;;;;;13.00;99.90;;;;;;5089311;28;19915;-73
2022/02/20 11:08:45;;;;;;;;;;;13.00;99.90;;;;;;5089527;28;20003;-72
2022/02/20 11:13:58;;;;;;;;;;;12.90;99.90;;;;;;5089780;28;19965;-71
2022/02/20 11:16:23;;;;;;;;;;;13.00;99.90;;;;;;5089149;28;19920;-72
2022/02/20 11:18:53;;;;;;;;;;;12.90;99.90;;;;;;5089387;28;19927;-72
2022/02/20 11:21:19;;;;;;;;;;;12.90;99.90;;;;;;5089090;28;20380;-72
2022/02/20 11:23:45;;;;;;;;;;;12.90;99.90;;;;;;5089263;28;19916;-72
2022/02/20 11:26:12;;;;;;;;;;;12.90;99.90;;;;;;5089132;28;19909;-71
2022/02/20 11:28:38;;;;;;;;;;;12.90;99.90;;;;;;5087824;28;19966;-72
2022/02/20 11:31:04;;;;;;;;;;;12.90;99.90;;;;;;5087339;28;19951;-72
2022/02/20 11:33:29;;;;;;;;;;;12.90;99.90;;;;;;5088746;28;20390;-72
2022/02/20 11:35:55;;;;;;;;;;;12.90;99.90;;;;;;5070870;28;19965;-72
2022/02/20 11:38:22;;;;;;;;;;;12.90;99.90;;;;;;5088950;28;19916;-72
2022/02/20 11:40:52;;;;;;;;;;;12.90;99.90;;;;;;5088888;28;20034;-73
2022/02/20 11:43:18;;;;;;;;;;;12.90;99.90;;;;;;5088849;28;19935;-72
2022/02/20 11:46:00;;;;;;;;;;;12.90;99.90;;;;;;5088501;28;19957;-72
2022/02/20 11:48:26;;;;;;;;;;;12.90;99.90;;;;;;5087194;28;20358;-72
2022/02/20 11:50:51;;;;;;;;;;;12.90;99.90;;;;;;5088452;28;19915;-72
2022/02/20 11:53:25;;;;;;;;;;;12.90;99.90;;;;;;5088339;28;19916;-72
2022/02/20 11:56:00;;;;;;;;;;;12.90;99.90;;;;;;5088492;28;19909;-72
2022/02/20 11:58:26;;;;;;;;;;;12.80;99.90;;;;;;5088504;28;19923;-72
2022/02/20 12:00:54;;;;;;;;;;;12.90;99.90;;;;;;5088385;28;19907;-72
2022/02/20 12:03:20;;;;;;;;;;;12.80;99.90;;;;;;5087416;28;19908;-72
2022/02/20 12:06:04;;;;;;;;;;;12.80;99.90;;;;;;5088146;28;19993;-69
2022/02/20 12:08:31;;;;;;;;;;;12.80;99.90;;;;;;5088420;28;19908;-72
2022/02/20 12:11:10;;;;;;;;;;;12.70;99.90;;;;;;5088231;28;20003;-71
2022/02/20 12:13:43;;;;;;;;;;;12.50;99.90;;;;;;5088405;28;19915;-72
2022/02/20 12:16:22;;;;;;;;;;;12.20;99.90;;;;;;5088178;28;19912;-72
2022/02/20 12:19:06;;;;;;;;;;;11.80;99.90;;;;;;5088288;28;19915;-72
2022/02/20 12:21:32;;;;;;;;;;;11.50;99.90;;;;;;5087954;28;20007;-69
2022/02/20 12:24:12;;;;;;;;;;;11.30;99.90;;;;;;5088178;28;19999;-71
2022/02/20 12:26:41;;;;;;;;;;;11.20;99.90;;;;;;5087893;28;19927;-71
2022/02/20 12:29:10;;;;;;;;;;;11.10;99.90;;;;;;5088341;28;19976;-71
2022/02/20 12:31:55;;;;;;;;;;;11.10;99.90;;;;;;5086516;28;19908;-72
2022/02/20 12:34:39;;;;;;;;;;;11.00;99.90;;;;;;5087742;28;19924;-72
2022/02/20 12:37:05;;;;;;;;;;;11.00;99.90;;;;;;5087658;28;20456;-72
2022/02/20 12:39:31;;;;;;;;;;;11.00;99.90;;;;;;5086601;28;19908;-72
2022/02/20 12:42:01;;;;;;;;;;;11.00;99.90;;;;;;5087663;28;19916;-71
2022/02/20 12:44:27;;;;;;;;;;;11.00;99.90;;;;;;5087551;28;20375;-72
2022/02/20 12:46:52;;;;;;;;;;;11.00;99.90;;;;;;5087397;28;20217;-72
2022/02/20 12:49:18;;;;;;;;;;;11.00;99.90;;;;;;5087419;28;19962;-72
2022/02/20 12:51:44;;;;;;;;;;;11.00;99.90;;;;;;5087664;28;19925;-72
2022/02/20 12:54:09;;;;;;;;;;;11.00;99.90;;;;;;5087182;28;19908;-72
2022/02/20 12:56:35;;;;;;;;;;;11.00;99.90;;;;;;5087002;28;19931;-72
2022/02/20 12:59:02;;;;;;;;;;;11.00;99.90;;;;;;5087138;28;19920;-72
2022/02/20 13:01:28;;;;;;;;;;;11.00;99.90;;;;;;5087287;28;19922;-71
2022/02/20 13:03:54;;;;;;;;;;;11.00;99.90;;;;;;5085898;28;19916;-72
2022/02/20 13:06:20;;;;;;;;;;;11.00;99.90;;;;;;5087739;28;19912;-72
2022/02/20 13:08:49;;;;;;;;;;;11.00;99.90;;;;;;5087207;28;20285;-72
2022/02/20 13:11:24;;;;;;;;;;;11.00;99.90;;;;;;5087383;28;19923;-72
2022/02/20 13:13:50;;;;;;;;;;;11.00;99.90;;;;;;5089050;28;19908;-72
2022/02/20 13:16:17;;;;;;;;;;;11.00;99.90;;;;;;5091366;28;19912;-72
2022/02/20 13:18:43;;;;;;;;;;;11.00;99.90;;;;;;5091737;28;19923;-72
2022/02/20 13:21:11;;;;;;;;;;;11.00;99.90;;;;;;5091387;28;19923;-71
2022/02/20 13:23:37;;;;;;;;;;;11.00;99.90;;;;;;5090071;28;19959;-71
2022/02/20 13:26:15;;;;;;;;;;;10.90;99.90;;;;;;5089861;28;19913;-72
2022/02/20 13:28:45;;;;;;;;;;;11.00;99.90;;;;;;5091336;28;19922;-71
2022/02/20 13:31:12;;;;;;;;;;;11.00;99.90;;;;;;5091094;28;19931;-72
2022/02/20 13:33:47;;;;;;;;;;;11.10;99.90;;;;;;5091139;28;19931;-71
2022/02/20 13:36:17;;;;;;;;;;;11.10;99.90;;;;;;5091068;28;19912;-72
2022/02/20 13:38:44;;;;;;;;;;;11.10;99.90;;;;;;5090910;28;19949;-72
2022/02/20 13:41:11;;;;;;;;;;;11.20;99.90;;;;;;5089539;28;19915;-72
2022/02/20 13:43:42;;;;;;;;;;;11.20;99.90;;;;;;5090729;28;20281;-72
2022/02/20 13:46:08;;;;;;;;;;;11.20;99.90;;;;;;5090749;28;19908;-72
2022/02/20 13:48:34;;;;;;;;;;;11.10;99.90;;;;;;5090639;28;19920;-72
2022/02/20 13:51:09;;;;;;;;;;;11.10;99.90;;;;;;5090213;28;19966;-72
2022/02/20 13:53:44;;;;;;;;;;;11.10;99.90;;;;;;5090137;28;19912;-70
2022/02/20 13:56:17;;;;;;;;;;;11.10;99.90;;;;;;5090093;28;19908;-71
2022/02/20 13:58:43;;;;;;;;;;;11.20;99.90;;;;;;5090615;28;19912;-71
2022/02/20 14:01:09;;;;;;;;;;;11.20;99.90;;;;;;5090203;28;19919;-71
2022/02/20 14:03:36;;;;;;;;;;;11.20;99.90;;;;;;5090437;28;19994;-72
2022/02/20 14:06:02;;;;;;;;;;;11.20;99.90;;;;;;5091118;28;19908;-72
2022/02/20 14:08:28;;;;;;;;;;;11.20;99.90;;;;;;5091099;28;19998;-71
2022/02/20 14:10:56;;;;;;;;;;;11.20;99.90;;;;;;5091425;28;19916;-71
2022/02/20 14:13:22;;;;;;;;;;;11.10;99.90;;;;;;5090937;28;20651;-71
2022/02/20 14:16:00;;;;;;;;;;;11.10;99.90;;;;;;5090046;28;19977;-72